Time;durP1;ratioP1;P1;durP2;ratioP2;P2;SDS_P1;SDS_P2;PMS_P1;PMS_P2;Temp;Humidity;BMP_temperature;BMP_pressure;BME280_temperature;BME280_humidity;BME280_pressure;Samples;Min_cycle;Max_cycle;Signal;HPM_P1;HPM_P2
2023/11/08 00:01:41;;;;;;;3.30;1.02;;;;;;;19.51;46.13;101046.53;5021162;28;20025;-67
2023/11/08 00:04:06;;;;;;;3.10;1.00;;;;;;;19.48;46.00;101044.97;5019841;28;20405;-67
2023/11/08 00:06:33;;;;;;;2.80;0.97;;;;;;;19.48;45.81;101036.22;5020732;28;20341;-68
2023/11/08 00:08:59;;;;;;;1.55;0.77;;;;;;;19.46;45.84;101033.69;5020496;28;20290;-68
2023/11/08 00:11:24;;;;;;;2.67;0.90;;;;;;;19.45;45.98;101039.13;5020213;28;20021;-68
2023/11/08 00:13:51;;;;;;;2.97;1.15;;;;;;;19.43;45.82;101036.59;5019814;28;20810;-70
2023/11/08 00:16:17;;;;;;;3.25;1.08;;;;;;;19.42;45.92;101037.56;5020789;28;20406;-70
2023/11/08 00:18:43;;;;;;;2.40;0.90;;;;;;;19.41;45.72;101038.53;5020224;28;20512;-68
2023/11/08 00:21:09;;;;;;;2.88;1.00;;;;;;;19.40;45.89;101036.84;5020181;28;20037;-68
2023/11/08 00:23:34;;;;;;;2.43;0.90;;;;;;;19.38;45.75;101034.34;5020393;28;20036;-68
2023/11/08 00:25:59;;;;;;;4.93;1.20;;;;;;;19.38;46.08;101041.44;5018870;28;20340;-68
2023/11/08 00:28:24;;;;;;;2.45;1.00;;;;;;;19.38;45.78;101042.28;5020607;28;20706;-68
2023/11/08 00:30:50;;;;;;;3.45;1.00;;;;;;;19.35;45.79;101041.69;5018720;28;20481;-69
2023/11/08 00:33:16;;;;;;;3.80;1.08;;;;;;;19.37;45.75;101045.03;5019627;28;20030;-67
2023/11/08 00:35:42;;;;;;;3.33;1.02;;;;;;;19.35;45.61;101036.41;5001409;28;20049;-68
2023/11/08 00:38:07;;;;;;;2.15;0.90;;;;;;;19.34;45.82;101040.00;5019761;28;20104;-70
2023/11/08 00:40:32;;;;;;;2.95;1.00;;;;;;;19.32;45.90;101042.78;5018220;28;20029;-69
2023/11/08 00:42:58;;;;;;;2.22;0.80;;;;;;;19.31;45.65;101042.91;5019722;28;20041;-71
2023/11/08 00:45:23;;;;;;;1.83;0.82;;;;;;;19.31;45.91;101043.75;5019865;28;20084;-69
2023/11/08 00:47:52;;;;;;;3.10;0.95;;;;;;;19.30;45.67;101043.88;5018799;28;20846;-71
2023/11/08 00:50:17;;;;;;;2.72;1.10;;;;;;;19.29;45.72;101052.78;5019697;28;20065;-71
2023/11/08 00:52:43;;;;;;;2.92;0.90;;;;;;;19.29;45.72;101055.41;5020095;28;20112;-69
2023/11/08 00:55:08;;;;;;;3.90;1.17;;;;;;;19.28;45.65;101054.59;5018765;28;20389;-69
2023/11/08 00:57:34;;;;;;;2.55;0.90;;;;;;;19.27;45.59;101055.53;5018649;28;20374;-70
2023/11/08 00:59:59;;;;;;;2.83;0.98;;;;;;;19.27;45.51;101058.19;5019132;28;20041;-70
2023/11/08 01:02:24;;;;;;;3.08;1.02;;;;;;;19.26;45.59;101059.13;5019426;28;20037;-70
2023/11/08 01:04:49;;;;;;;2.50;0.90;;;;;;;19.25;45.67;101057.47;5019217;28;20586;-70
2023/11/08 01:07:15;;;;;;;2.20;0.90;;;;;;;19.24;45.53;101061.06;5018724;28;20040;-69
2023/11/08 01:09:41;;;;;;;3.43;0.93;;;;;;;19.23;45.37;101062.03;5019361;28;20263;-70
2023/11/08 01:12:06;;;;;;;3.25;1.20;;;;;;;19.23;45.49;101074.41;5019037;28;20267;-70
2023/11/08 01:14:32;;;;;;;3.50;1.10;;;;;;;19.23;45.40;101071.75;5019419;28;20401;-69
2023/11/08 01:16:58;;;;;;;2.35;0.90;;;;;;;19.21;45.57;101069.25;5019057;28;20581;-69
2023/11/08 01:19:25;;;;;;;3.95;1.00;;;;;;;19.20;45.38;101073.72;5019160;28;20579;-70
2023/11/08 01:21:50;;;;;;;2.00;0.80;;;;;;;19.19;45.45;101077.31;5018736;28;20032;-70
2023/11/08 01:24:16;;;;;;;4.55;1.40;;;;;;;19.19;45.42;101066.72;5018632;28;20033;-67
2023/11/08 01:26:42;;;;;;;2.28;0.93;;;;;;;19.17;45.34;101076.59;5018831;28;20095;-70
2023/11/08 01:29:07;;;;;;;3.05;1.08;;;;;;;19.19;45.37;101081.75;5017917;28;20078;-69
2023/11/08 01:31:32;;;;;;;5.70;1.77;;;;;;;19.18;45.25;101080.06;5019151;28;20403;-70
2023/11/08 01:33:58;;;;;;;3.80;1.10;;;;;;;19.16;45.19;101069.63;5018837;28;20309;-69
2023/11/08 01:36:26;;;;;;;3.35;1.20;;;;;;;19.14;45.22;101074.22;5018918;28;20481;-68
2023/11/08 01:38:52;;;;;;;2.83;0.90;;;;;;;19.15;45.52;101080.31;5001041;28;20041;-69
2023/11/08 01:41:19;;;;;;;2.60;1.00;;;;;;;19.13;45.40;101069.88;5018174;28;20042;-68
2023/11/08 01:43:45;;;;;;;4.38;1.02;;;;;;;19.13;45.08;101072.50;4998858;28;20512;-70
2023/11/08 01:46:18;;;;;;;2.28;0.85;;;;;;;19.12;45.22;101080.56;5018214;28;20145;-69
2023/11/08 01:48:43;;;;;;;3.70;1.13;;;;;;;19.11;45.31;101074.47;5018789;28;20401;-70
2023/11/08 01:51:09;;;;;;;3.42;1.00;;;;;;;19.11;45.30;101074.47;5018397;28;20037;-70
2023/11/08 01:53:40;;;;;;;3.13;1.00;;;;;;;19.09;45.44;101075.53;5018908;28;20037;-70
2023/11/08 01:56:06;;;;;;;2.78;1.00;;;;;;;19.09;45.26;101072.88;5017779;28;20069;-70
2023/11/08 01:58:34;;;;;;;3.53;1.00;;;;;;;19.08;45.44;101080.00;5001557;28;20037;-68
2023/11/08 02:01:04;;;;;;;3.00;0.90;;;;;;;19.07;45.32;101080.94;5017876;28;20033;-68
2023/11/08 02:03:30;;;;;;;3.70;0.90;;;;;;;19.07;45.31;101088.88;5018537;28;20030;-68
2023/11/08 02:05:56;;;;;;;2.95;0.90;;;;;;;19.07;45.22;101090.69;5018023;28;21124;-68
2023/11/08 02:08:22;;;;;;;3.03;0.88;;;;;;;19.06;45.24;101089.84;5018985;28;20137;-68
2023/11/08 02:10:47;;;;;;;3.20;1.00;;;;;;;19.05;45.23;101088.16;5000389;28;20030;-69
2023/11/08 02:13:12;;;;;;;2.47;0.98;;;;;;;19.05;45.19;101084.69;5018553;28;20486;-69
2023/11/08 02:15:42;;;;;;;1.97;0.83;;;;;;;19.03;45.17;101093.56;5018557;28;20037;-70
2023/11/08 02:18:09;;;;;;;2.58;1.10;;;;;;;19.03;45.17;101088.28;5016999;28;20281;-68
2023/11/08 02:20:34;;;;;;;3.45;1.10;;;;;;;19.02;45.29;101086.59;5018531;28;20401;-70
2023/11/08 02:22:59;;;;;;;2.88;0.90;;;;;;;19.02;45.05;101091.88;5018388;28;20033;-70
2023/11/08 02:25:25;;;;;;;3.40;1.10;;;;;;;19.01;45.36;101092.84;5017765;28;20065;-70
2023/11/08 02:27:50;;;;;;;2.15;0.90;;;;;;;19.01;45.38;101095.50;5018524;28;20270;-70
2023/11/08 02:30:16;;;;;;;2.65;0.88;;;;;;;19.00;45.12;101095.63;5018321;28;20044;-70
2023/11/08 02:32:41;;;;;;;3.20;1.10;;;;;;;19.01;45.14;101099.97;5017957;28;20060;-69
2023/11/08 02:35:08;;;;;;;3.15;0.90;;;;;;;19.00;45.15;101092.97;5017443;28;20223;-70
2023/11/08 02:37:34;;;;;;;2.90;0.90;;;;;;;19.00;45.09;101100.91;5018307;28;20079;-68
2023/11/08 02:40:00;;;;;;;3.08;1.00;;;;;;;18.99;45.41;101101.84;5017127;28;20037;-69
2023/11/08 02:42:25;;;;;;;3.58;1.10;;;;;;;18.99;45.19;101096.56;5018488;28;20032;-69
2023/11/08 02:44:50;;;;;;;3.53;1.05;;;;;;;18.99;45.09;101096.56;5017379;28;20036;-70
2023/11/08 02:47:16;;;;;;;2.27;0.90;;;;;;;18.97;45.02;101090.59;5017598;28;20129;-69
2023/11/08 02:49:41;;;;;;;2.22;0.90;;;;;;;18.97;45.08;101099.34;5018265;28;20271;-68
2023/11/08 02:52:08;;;;;;;2.22;0.90;;;;;;;18.98;45.29;101100.19;5018408;28;20029;-70
2023/11/08 02:54:33;;;;;;;3.38;1.00;;;;;;;18.96;45.28;101096.81;5021421;28;20029;-69
2023/11/08 02:56:59;;;;;;;3.10;1.00;;;;;;;18.96;45.08;101095.03;5021340;28;20390;-71
2023/11/08 02:59:24;;;;;;;2.53;1.10;;;;;;;18.95;44.90;101096.00;5021643;28;20072;-70
2023/11/08 03:01:50;;;;;;;2.30;0.80;;;;;;;18.94;45.10;101101.41;5003480;28;20042;-71
2023/11/08 03:04:15;;;;;;;2.30;1.10;;;;;;;18.94;45.09;101102.22;5021812;28;20341;-69
2023/11/08 03:06:43;;;;;;;3.25;0.90;;;;;;;18.94;44.98;101104.03;5021203;28;20484;-68
2023/11/08 03:09:08;;;;;;;2.60;0.80;;;;;;;18.94;45.00;101101.41;5021861;28;20103;-68
2023/11/08 03:11:36;;;;;;;1.75;0.73;;;;;;;18.94;45.07;101109.31;5021592;28;20030;-70
2023/11/08 03:14:02;;;;;;;3.67;1.00;;;;;;;18.92;44.87;101103.34;5021091;28;20400;-70
2023/11/08 03:16:27;;;;;;;2.72;0.95;;;;;;;18.92;45.03;101114.72;5021877;28;20037;-70
2023/11/08 03:18:52;;;;;;;2.73;0.90;;;;;;;18.92;45.07;101114.72;5021147;28;20038;-69
2023/11/08 03:21:18;;;;;;;4.63;0.90;;;;;;;18.91;44.84;101105.13;5021434;28;20270;-69
2023/11/08 03:23:43;;;;;;;4.00;1.27;;;;;;;18.92;44.85;101105.97;5021473;28;20040;-70
2023/11/08 03:26:09;;;;;;;3.42;0.90;;;;;;;18.89;44.96;101116.78;5021491;28;20310;-69
2023/11/08 03:28:35;;;;;;;2.55;0.93;;;;;;;18.90;45.11;101111.38;5020831;28;20040;-69
2023/11/08 03:31:00;;;;;;;2.35;0.80;;;;;;;18.89;44.96;101114.97;5021352;28;20037;-70
2023/11/08 03:33:26;;;;;;;2.95;1.00;;;;;;;18.88;45.14;101110.66;5021674;28;20120;-71
2023/11/08 03:35:51;;;;;;;2.23;0.90;;;;;;;18.88;44.83;101110.66;5020383;28;20056;-69
2023/11/08 03:38:16;;;;;;;2.42;0.90;;;;;;;18.88;44.90;101109.81;5021508;28;20274;-70
2023/11/08 03:40:42;;;;;;;4.60;1.07;;;;;;;18.88;44.99;101109.81;5003757;28;20049;-70
2023/11/08 03:43:08;;;;;;;3.17;1.00;;;;;;;18.85;45.00;101106.47;5020223;28;20381;-70
2023/11/08 03:45:33;;;;;;;2.78;0.85;;;;;;;18.84;44.87;101107.41;5020798;28;20086;-69
2023/11/08 03:47:58;;;;;;;3.67;1.10;;;;;;;18.84;44.87;101104.78;5020809;28;20504;-70
2023/11/08 03:50:24;;;;;;;2.83;0.90;;;;;;;18.85;45.04;101100.34;5020668;28;20037;-70
2023/11/08 03:52:49;;;;;;;3.40;1.08;;;;;;;18.85;44.87;101114.38;5021101;28;20029;-69
2023/11/08 03:55:15;;;;;;;2.35;0.85;;;;;;;18.83;44.99;101105.72;5020622;28;20058;-71
2023/11/08 03:57:41;;;;;;;3.28;0.80;;;;;;;18.83;45.02;101113.66;5020147;28;20154;-69
2023/11/08 04:00:07;;;;;;;1.80;0.68;;;;;;;18.82;44.89;101106.69;5020285;28;20045;-70
2023/11/08 04:02:32;;;;;;;1.90;0.75;;;;;;;18.83;45.06;101111.00;5020775;28;20029;-68
2023/11/08 04:04:57;;;;;;;2.47;0.80;;;;;;;18.83;45.25;101110.16;5018893;28;20036;-69
2023/11/08 04:07:23;;;;;;;2.13;1.13;;;;;;;18.82;45.07;101104.03;5003083;28;20275;-69
2023/11/08 04:09:48;;;;;;;4.18;1.00;;;;;;;18.81;44.85;101105.00;5019758;28;20294;-69
2023/11/08 04:12:14;;;;;;;3.55;1.05;;;;;;;18.81;45.00;101107.63;5020389;28;20060;-70
2023/11/08 04:14:40;;;;;;;2.38;0.70;;;;;;;18.82;44.91;101106.69;5020379;28;20040;-71
2023/11/08 04:17:10;;;;;;;3.00;0.90;;;;;;;18.81;44.93;101110.28;5019666;28;20559;-69
2023/11/08 04:19:38;;;;;;;2.35;0.95;;;;;;;18.82;44.84;101111.13;5020217;28;20538;-69
2023/11/08 04:22:09;;;;;;;2.90;1.00;;;;;;;18.81;44.86;101120.00;5020539;28;20028;-68
2023/11/08 04:24:35;;;;;;;4.28;1.00;;;;;;;18.80;44.76;101118.31;5019759;28;20037;-69
2023/11/08 04:27:02;;;;;;;3.42;0.88;;;;;;;18.81;44.85;101123.47;5019949;28;20135;-70
2023/11/08 04:29:28;;;;;;;2.90;0.82;;;;;;;18.79;44.63;101120.13;5020726;28;20029;-69
2023/11/08 04:31:53;;;;;;;1.88;0.80;;;;;;;18.79;44.99;101114.84;5019387;28;20033;-68
2023/11/08 04:34:18;;;;;;;1.83;0.80;;;;;;;18.80;44.80;101116.53;5020266;28;20396;-71
2023/11/08 04:36:44;;;;;;;2.50;0.80;;;;;;;18.79;44.75;101111.38;5020375;28;20075;-69
2023/11/08 04:39:10;;;;;;;2.55;0.98;;;;;;;18.78;44.61;101113.16;5019338;28;20104;-70
2023/11/08 04:41:38;;;;;;;3.00;0.70;;;;;;;18.77;44.61;101111.50;5020280;28;20401;-69
2023/11/08 04:44:08;;;;;;;2.70;0.90;;;;;;;18.78;44.47;101115.78;5019182;28;20595;-71
2023/11/08 04:46:35;;;;;;;3.10;0.90;;;;;;;18.76;44.75;101117.72;5019029;28;20037;-69
2023/11/08 04:49:00;;;;;;;2.35;0.70;;;;;;;18.77;44.53;101122.06;5001843;28;20034;-69
2023/11/08 04:51:25;;;;;;;2.63;0.90;;;;;;;18.77;44.51;101122.06;5020241;28;20106;-69
2023/11/08 04:53:50;;;;;;;1.85;0.70;;;;;;;18.77;44.85;101129.97;5018582;28;20270;-69
2023/11/08 04:56:16;;;;;;;1.87;0.70;;;;;;;18.75;44.55;101126.59;5019659;28;20449;-68
2023/11/08 04:58:41;;;;;;;2.13;0.80;;;;;;;18.76;44.74;101124.81;5019860;28;20298;-69
2023/11/08 05:01:06;;;;;;;2.97;0.90;;;;;;;18.75;44.79;101113.41;5018665;28;20266;-70
2023/11/08 05:03:32;;;;;;;4.22;1.00;;;;;;;18.75;44.46;101123.97;5019453;28;20552;-69
2023/11/08 05:05:57;;;;;;;3.08;0.88;;;;;;;18.73;44.46;101120.59;5019664;28;20079;-70
2023/11/08 05:08:23;;;;;;;2.17;0.70;;;;;;;18.73;44.67;101117.97;5018592;28;20034;-69
2023/11/08 05:10:49;;;;;;;3.28;0.90;;;;;;;18.72;44.81;101116.28;5019136;28;20083;-70
2023/11/08 05:13:15;;;;;;;2.80;0.90;;;;;;;18.72;44.28;101115.44;5018689;28;20091;-69
2023/11/08 05:15:40;;;;;;;2.35;0.70;;;;;;;18.72;44.77;101118.09;5018512;28;20037;-70
2023/11/08 05:18:06;;;;;;;2.78;0.90;;;;;;;18.70;44.56;101123.50;5019340;28;20451;-69
2023/11/08 05:20:31;;;;;;;2.03;0.70;;;;;;;18.71;45.11;101124.31;5019033;28;20117;-70
2023/11/08 05:22:56;;;;;;;1.95;0.68;;;;;;;18.70;44.59;101126.13;5019237;28;20762;-69
2023/11/08 05:25:22;;;;;;;2.57;0.80;;;;;;;18.69;44.54;101124.44;5019183;28;20116;-71
2023/11/08 05:27:48;;;;;;;2.38;0.70;;;;;;;18.68;44.53;101120.97;5001003;28;20346;-68
2023/11/08 05:30:15;;;;;;;4.35;0.82;;;;;;;18.68;44.53;101126.25;5018602;28;20393;-69
2023/11/08 05:32:41;;;;;;;2.45;1.00;;;;;;;18.69;44.51;101124.44;5019204;28;20053;-69
2023/11/08 05:35:07;;;;;;;3.00;1.00;;;;;;;18.65;44.64;101123.03;5016206;28;20045;-69
2023/11/08 05:37:33;;;;;;;2.75;0.80;;;;;;;18.66;44.53;101114.16;5018604;28;20036;-69
2023/11/08 05:39:58;;;;;;;2.97;0.80;;;;;;;18.65;44.53;101117.75;5001272;28;20052;-68
2023/11/08 05:42:24;;;;;;;1.55;0.70;;;;;;;18.67;44.47;101121.94;5000723;28;20044;-70
2023/11/08 05:44:58;;;;;;;1.95;0.80;;;;;;;18.66;44.79;101122.06;5018499;28;20033;-69
2023/11/08 05:47:23;;;;;;;3.22;0.80;;;;;;;18.65;44.54;101115.94;5000991;28;20481;-70
2023/11/08 05:49:49;;;;;;;1.92;0.60;;;;;;;18.66;44.34;101127.34;5018506;28;20045;-70
2023/11/08 05:52:16;;;;;;;2.90;0.85;;;;;;;18.65;44.66;101118.56;5001085;28;20468;-68
2023/11/08 05:54:41;;;;;;;3.05;0.80;;;;;;;18.65;44.61;101123.84;5018784;28;20071;-69
2023/11/08 05:57:06;;;;;;;3.47;1.00;;;;;;;18.67;44.70;101127.22;5017505;28;20120;-69
2023/11/08 05:59:32;;;;;;;2.27;0.80;;;;;;;18.65;44.52;101120.38;5018424;28;20033;-69
2023/11/08 06:01:57;;;;;;;3.00;0.80;;;;;;;18.65;44.33;101123.03;5018490;28;20263;-68
2023/11/08 06:04:22;;;;;;;1.95;0.65;;;;;;;18.65;44.63;101115.94;5018060;28;20049;-69
2023/11/08 06:06:48;;;;;;;1.58;0.70;;;;;;;18.66;44.61;101130.81;5018153;28;20084;-70
2023/11/08 06:09:14;;;;;;;2.75;1.38;;;;;;;18.66;44.53;101130.00;5019013;28;20151;-69
2023/11/08 06:11:40;;;;;;;3.25;0.85;;;;;;;18.68;44.63;101120.97;5017887;28;20034;-69
2023/11/08 06:14:06;;;;;;;2.63;0.80;;;;;;;18.66;44.86;101114.16;5018092;28;21066;-69
2023/11/08 06:16:31;;;;;;;1.98;0.90;;;;;;;18.70;44.76;101122.66;5018567;28;20041;-69
2023/11/08 06:18:57;;;;;;;3.13;0.77;;;;;;;18.71;45.02;101130.47;5018284;28;20041;-69
2023/11/08 06:21:22;;;;;;;2.45;0.90;;;;;;;18.70;45.07;101131.41;5001568;28;21019;-69
2023/11/08 06:23:48;;;;;;;3.22;0.90;;;;;;;18.70;45.26;101133.22;5017545;28;20045;-69
2023/11/08 06:26:17;;;;;;;2.58;0.70;;;;;;;18.71;45.51;101141.03;5018317;28;20037;-68
2023/11/08 06:28:43;;;;;;;2.08;0.70;;;;;;;18.72;45.49;101134.75;5021467;28;20034;-68
2023/11/08 06:31:08;;;;;;;2.17;0.60;;;;;;;18.75;45.50;101136.31;5020988;28;20396;-69
2023/11/08 06:33:34;;;;;;;2.05;0.70;;;;;;;18.77;45.50;101132.63;5022255;28;20043;-68
2023/11/08 06:36:00;;;;;;;1.95;0.77;;;;;;;18.78;45.70;101139.56;5019141;28;20037;-68
2023/11/08 06:38:27;;;;;;;3.13;0.93;;;;;;;18.82;45.57;101142.81;5020941;28;20480;-69
2023/11/08 06:40:53;;;;;;;2.17;0.75;;;;;;;18.82;45.54;101138.38;5001944;28;20086;-69
2023/11/08 06:43:18;;;;;;;2.78;0.70;;;;;;;18.82;45.50;101138.38;5021308;28;20482;-69
2023/11/08 06:45:43;;;;;;;2.92;0.80;;;;;;;18.84;45.46;101140.91;5020952;28;20087;-70
2023/11/08 06:48:09;;;;;;;1.98;0.70;;;;;;;18.85;45.49;101138.16;5021420;28;20037;-69
2023/11/08 06:50:34;;;;;;;1.85;0.82;;;;;;;18.88;45.51;101138.84;5022532;28;20029;-69
2023/11/08 06:52:59;;;;;;;3.00;0.80;;;;;;;18.92;45.31;101146.41;5021723;28;20038;-69
2023/11/08 06:55:25;;;;;;;2.05;0.75;;;;;;;18.92;45.40;101141.13;5022082;28;20292;-70
2023/11/08 06:57:50;;;;;;;1.50;0.73;;;;;;;18.95;45.24;101140.06;5020987;28;20060;-70
2023/11/08 07:00:15;;;;;;;2.72;0.80;;;;;;;18.95;45.63;101140.91;5021502;28;20041;-69
2023/11/08 07:02:41;;;;;;;2.53;0.82;;;;;;;18.98;45.63;101145.09;5021812;28;20030;-69
2023/11/08 07:05:07;;;;;;;3.55;1.00;;;;;;;18.99;45.76;101142.34;5003690;28;20125;-69
2023/11/08 07:07:33;;;;;;;3.20;1.08;;;;;;;18.99;45.79;101144.13;5020721;28;20041;-69
2023/11/08 07:09:58;;;;;;;2.70;0.85;;;;;;;19.02;45.45;101143.88;5021389;28;20105;-69
2023/11/08 07:12:24;;;;;;;3.25;0.75;;;;;;;19.03;45.78;101141.13;5021730;28;20060;-70
2023/11/08 07:14:49;;;;;;;2.78;0.90;;;;;;;19.03;46.14;101142.91;5021207;28;20928;-70
2023/11/08 07:17:14;;;;;;;3.28;1.17;;;;;;;19.07;45.59;101143.50;5021061;28;20034;-70
2023/11/08 07:19:41;;;;;;;3.28;0.90;;;;;;;19.08;45.71;101139.91;5021773;28;20061;-71
2023/11/08 07:22:07;;;;;;;2.83;0.95;;;;;;;19.07;45.58;101140.88;5020909;28;20057;-71
2023/11/08 07:24:33;;;;;;;4.60;1.00;;;;;;;19.07;45.56;101146.97;5021222;28;20061;-71
2023/11/08 07:26:58;;;;;;;3.10;1.20;;;;;;;19.09;45.32;101150.34;5015492;28;20033;-78
2023/11/08 07:29:24;;;;;;;3.17;0.98;;;;;;;19.12;45.29;101146.63;5025010;28;20033;-72
2023/11/08 07:31:51;;;;;;;3.40;0.95;;;;;;;19.13;45.23;101143.84;5019418;28;20130;-72
2023/11/08 07:34:21;;;;;;;4.32;1.27;;;;;;;19.15;45.40;101151.66;5018578;28;20044;-73
2023/11/08 07:36:46;;;;;;;2.90;0.90;;;;;;;19.16;45.45;101148.06;5019720;28;20025;-75
2023/11/08 07:39:15;;;;;;;3.80;1.17;;;;;;;19.16;45.66;101148.06;5018309;28;20045;-73
2023/11/08 07:41:43;;;;;;;5.53;1.10;;;;;;;19.13;45.36;101148.31;5019870;28;20072;-73
2023/11/08 07:44:09;;;;;;;3.70;1.20;;;;;;;19.14;45.34;101152.63;5021219;28;20029;-73
2023/11/08 07:46:35;;;;;;;4.10;1.20;;;;;;;19.15;45.41;101141.09;5020765;28;20033;-73
2023/11/08 07:49:00;;;;;;;3.28;1.05;;;;;;;19.16;45.37;101140.97;5020780;28;20033;-73
2023/11/08 07:51:26;;;;;;;3.10;1.05;;;;;;;19.17;45.23;101144.47;5003276;28;20073;-77
2023/11/08 07:53:51;;;;;;;3.45;1.17;;;;;;;19.13;45.71;101141.22;5020739;28;20037;-73
2023/11/08 07:56:17;;;;;;;3.55;1.00;;;;;;;19.15;45.73;101143.72;5019700;28;20140;-74
2023/11/08 07:58:43;;;;;;;2.80;0.93;;;;;;;19.15;45.76;101154.28;5003691;28;20595;-73
2023/11/08 08:01:09;;;;;;;6.15;1.25;;;;;;;19.16;45.35;101158.63;5002742;28;20068;-73
2023/11/08 08:03:35;;;;;;;2.53;1.00;;;;;;;19.16;45.72;101159.44;5018647;28;20029;-72
2023/11/08 08:06:03;;;;;;;3.83;0.95;;;;;;;19.16;45.50;101162.09;5020724;28;20037;-73
2023/11/08 08:08:29;;;;;;;4.13;1.00;;;;;;;19.19;45.64;101161.84;5020520;28;20055;-73
2023/11/08 08:10:55;;;;;;;4.43;1.10;;;;;;;19.19;45.72;101159.22;5002631;28;20091;-72
2023/11/08 08:13:20;;;;;;;3.58;1.30;;;;;;;19.18;45.91;101159.34;5020808;28;20417;-72
2023/11/08 08:15:46;;;;;;;3.72;1.20;;;;;;;19.17;45.85;101160.31;5020537;28;20048;-73
2023/11/08 08:18:11;;;;;;;4.35;1.10;;;;;;;19.20;45.51;101166.19;5020052;28;20069;-73
2023/11/08 08:20:38;;;;;;;2.67;1.05;;;;;;;19.18;45.49;101164.63;5020912;28;20029;-73
2023/11/08 08:23:06;;;;;;;5.13;0.90;;;;;;;19.20;45.63;101175.88;5020325;28;20056;-72
2023/11/08 08:25:33;;;;;;;3.13;1.05;;;;;;;19.20;45.60;101170.59;5000589;28;20025;-72
2023/11/08 08:27:58;;;;;;;3.25;1.10;;;;;;;19.17;45.52;101166.44;5016274;28;20029;-72
2023/11/08 08:30:24;;;;;;;3.38;1.10;;;;;;;19.20;45.56;101174.09;5019316;28;20029;-72
2023/11/08 08:32:50;;;;;;;2.85;1.27;;;;;;;19.19;45.69;101171.59;5018603;28;20041;-73
2023/11/08 08:35:16;;;;;;;4.30;1.30;;;;;;;19.18;45.40;101165.47;5020599;28;20064;-73
2023/11/08 08:37:41;;;;;;;3.05;1.10;;;;;;;19.19;45.53;101168.94;5019371;28;20121;-73
2023/11/08 08:40:13;;;;;;;3.45;1.27;;;;;;;19.18;45.73;101168.13;5020243;28;20469;-73
2023/11/08 08:42:39;;;;;;;2.60;0.95;;;;;;;19.16;45.97;101175.31;5002740;28;20472;-75
2023/11/08 08:45:05;;;;;;;7.22;1.15;;;;;;;19.15;45.82;101173.66;5001533;28;20037;-67
2023/11/08 08:47:31;;;;;;;7.50;0.90;;;;;;;19.16;45.85;101171.84;5019218;28;20535;-74
2023/11/08 08:49:58;;;;;;;3.03;1.08;;;;;;;19.14;46.03;101166.66;5019367;28;20060;-71
2023/11/08 08:52:25;;;;;;;6.53;1.50;;;;;;;19.16;45.95;101164.75;5001375;28;20439;-79
2023/11/08 08:54:50;;;;;;;4.00;1.15;;;;;;;19.16;46.09;101162.09;5012981;28;20033;-74
2023/11/08 08:57:15;;;;;;;4.53;1.33;;;;;;;19.15;45.85;101156.94;5000202;28;20053;-73
2023/11/08 08:59:41;;;;;;;3.65;1.10;;;;;;;19.12;46.05;101165.97;5010474;28;20445;-73
2023/11/08 09:02:06;;;;;;;3.00;0.90;;;;;;;19.15;46.15;101156.94;4999221;28;20036;-70
2023/11/08 09:04:33;;;;;;;4.97;1.20;;;;;;;19.19;45.70;101153.91;5009992;28;20088;-70
2023/11/08 09:06:59;;;;;;;5.07;1.48;;;;;;;19.23;45.91;101153.69;5010920;28;20121;-71
2023/11/08 09:09:25;;;;;;;4.45;1.40;;;;;;;19.24;45.61;101150.91;5009792;28;20091;-70
2023/11/08 09:11:51;;;;;;;3.78;1.23;;;;;;;19.26;45.58;101150.78;5010487;28;20041;-71
2023/11/08 09:14:18;;;;;;;4.05;1.08;;;;;;;19.25;45.67;101149.97;5015220;28;20057;-70
2023/11/08 09:16:43;;;;;;;2.97;1.20;;;;;;;19.25;45.33;101152.59;5000934;28;20096;-71
2023/11/08 09:19:09;;;;;;;3.00;1.30;;;;;;;19.25;45.48;101147.31;5005789;28;20481;-72
2023/11/08 09:21:35;;;;;;;3.50;1.13;;;;;;;19.25;45.46;101159.66;5010352;28;20799;-71
2023/11/08 09:24:01;;;;;;;4.22;1.13;;;;;;;19.24;45.21;101148.28;5000404;28;20030;-72
2023/11/08 09:26:27;;;;;;;4.65;1.20;;;;;;;19.25;45.56;101149.97;5006269;28;20061;-70
2023/11/08 09:28:52;;;;;;;5.57;1.38;;;;;;;19.24;45.50;101153.56;5007383;28;20518;-71
2023/11/08 09:31:17;;;;;;;3.80;1.40;;;;;;;19.24;45.62;101150.91;5010641;28;20460;-70
2023/11/08 09:33:42;;;;;;;3.95;1.30;;;;;;;19.25;45.56;101151.75;5004901;28;20290;-72
2023/11/08 09:36:08;;;;;;;6.00;1.08;;;;;;;19.25;45.40;101159.66;5009834;28;20034;-70
2023/11/08 09:38:33;;;;;;;6.30;1.55;;;;;;;19.26;45.52;101148.16;5009781;28;20037;-71
2023/11/08 09:40:59;;;;;;;4.43;1.50;;;;;;;19.26;45.42;101146.34;5010301;28;20030;-70
2023/11/08 09:43:24;;;;;;;5.47;1.42;;;;;;;19.25;45.54;101142.03;5008652;28;20944;-71
2023/11/08 09:45:51;;;;;;;5.63;1.30;;;;;;;19.26;45.40;101142.84;5012784;28;20037;-70
2023/11/08 09:48:24;;;;;;;4.18;1.00;;;;;;;19.24;45.38;101148.28;5009782;28;20033;-70
2023/11/08 09:50:50;;;;;;;3.03;1.05;;;;;;;19.24;45.29;101135.06;5007994;28;20044;-70
2023/11/08 09:53:17;;;;;;;5.70;1.17;;;;;;;19.25;45.35;101141.16;5012642;28;20052;-70
2023/11/08 09:55:43;;;;;;;6.20;1.52;;;;;;;19.25;45.44;101143.81;5005988;28;20053;-71
2023/11/08 09:58:12;;;;;;;5.68;1.63;;;;;;;19.26;45.55;101153.44;5019099;28;20037;-70
2023/11/08 10:00:40;;;;;;;4.85;1.23;;;;;;;19.24;45.51;101153.56;5018599;28;20468;-71
2023/11/08 10:03:08;;;;;;;3.03;1.13;;;;;;;19.24;45.19;101150.91;5017409;28;20260;-70
2023/11/08 10:05:36;;;;;;;4.13;1.17;;;;;;;19.26;45.43;101138.41;5018909;28;20497;-71
2023/11/08 10:08:09;;;;;;;3.25;0.98;;;;;;;19.24;45.28;101139.50;5019284;28;20057;-71
2023/11/08 10:10:37;;;;;;;3.72;1.25;;;;;;;19.26;45.28;101138.41;5018662;28;20084;-71
2023/11/08 10:13:04;;;;;;;3.97;1.25;;;;;;;19.25;45.49;101141.16;5018744;28;20037;-71
2023/11/08 10:15:30;;;;;;;3.60;1.23;;;;;;;19.23;45.44;101132.53;5018381;28;20041;-71
2023/11/08 10:17:55;;;;;;;4.82;1.10;;;;;;;19.23;45.28;101128.09;5018988;28;20732;-69
2023/11/08 10:20:21;;;;;;;3.60;1.10;;;;;;;19.24;45.27;101127.13;5019564;28;20121;-71
2023/11/08 10:22:46;;;;;;;4.53;1.10;;;;;;;19.23;45.51;101119.31;5017841;28;20029;-70
2023/11/08 10:25:12;;;;;;;4.47;1.20;;;;;;;19.23;45.42;101114.03;5013251;28;20048;-73
2023/11/08 10:27:38;;;;;;;4.80;1.10;;;;;;;19.21;45.38;101109.72;5017978;28;20041;-73
2023/11/08 10:30:18;;;;;;;4.97;1.00;;;;;;;19.18;45.58;101119.69;5017175;28;20543;-73
2023/11/08 10:32:44;;;;;;;5.00;1.20;;;;;;;19.17;45.56;101110.94;4999948;28;20485;-76
2023/11/08 10:35:19;;;;;;;4.78;1.35;;;;;;;19.14;45.70;101113.00;4999774;28;20128;-71
2023/11/08 10:37:46;;;;;;;3.55;1.10;;;;;;;19.12;45.91;101107.84;5017193;28;20030;-72
2023/11/08 10:40:16;;;;;;;5.28;1.20;;;;;;;19.10;45.89;101095.72;5020405;28;20446;-71
2023/11/08 10:42:49;;;;;;;5.28;1.17;;;;;;;19.13;46.04;101085.72;5014949;28;20397;-72
2023/11/08 10:45:15;;;;;;;3.60;1.15;;;;;;;19.16;45.81;101087.28;5016746;28;20036;-73
2023/11/08 10:47:41;;;;;;;5.35;1.30;;;;;;;19.14;45.95;101086.59;5018103;28;20041;-73
2023/11/08 10:50:08;;;;;;;5.30;1.30;;;;;;;19.18;45.75;101080.94;5017647;28;20037;-73
2023/11/08 10:52:34;;;;;;;4.82;1.10;;;;;;;19.17;46.02;101078.41;5017036;28;20025;-75
2023/11/08 10:55:03;;;;;;;3.38;1.20;;;;;;;19.18;46.02;101074.78;5017635;28;20037;-74
2023/11/08 10:57:32;;;;;;;4.03;1.00;;;;;;;19.20;45.97;101071.06;4999956;28;20033;-76
2023/11/08 11:00:01;;;;;;;5.82;1.25;;;;;;;19.21;45.96;101062.16;5010047;28;20061;-76
2023/11/08 11:02:48;;;;;;;3.17;1.10;;;;;;;19.25;45.76;101064.53;5014227;28;20621;-75
2023/11/08 11:05:22;;;;;;;3.28;1.08;;;;;;;19.29;46.00;101055.41;5006938;28;20041;-74
2023/11/08 11:07:48;;;;;;;3.38;1.02;;;;;;;19.32;45.91;101053.34;5003958;28;20457;-73
2023/11/08 11:10:15;;;;;;;4.68;1.17;;;;;;;19.31;46.03;101048.19;5004245;28;20823;-77
2023/11/08 11:12:59;;;;;;;3.25;1.00;;;;;;;19.27;46.25;101055.53;5010385;28;20029;-73
2023/11/08 11:15:58;;;;;;;3.70;1.17;;;;;;;19.26;46.21;101056.50;5015332;28;20084;-73
2023/11/08 11:18:30;;;;;;;5.40;1.30;;;;;;;19.26;46.38;101047.72;5017515;28;20363;-71
2023/11/08 11:21:04;;;;;;;5.97;1.20;;;;;;;19.26;46.28;101043.28;5014301;28;20033;-72